Weather at George Airport

Public forecast

Using degrees Celsius for public forecast. Weather courtesy of forecast.io.

Current aviation weather report (METAR) for George Airport

Report is more than 6 hours old.

2022/11/14 15:00 (retrieved 2 years ago)

FAGG 141500Z 11013KT CAVOK 22/13 Q1013

Aviation forecast (TAF) for George Airport

Forecast is more than 12 hours old.

2023/02/22 18:15 (retrieved 1 year ago)

TAF FAGG 221600Z 2218/2318 VRB03KT CAVOK TX23/2312Z TN14/2304Z PROB40 TEMPO 2300/2306 BKN008 FM230700 18005KT 9999 SCT013